Terminal Aerodrome Forecast
Issued by NWS Corpus Christi, TX

Home | Current Version | Previous Version | Text Only | Print | Product List | Glossary On
Versions: 1 2 3 4 5 6 7 8 9 10 11 12 13 14 15 16 17 18 19 20
000
FTUS44 KCRP 012300
TAFVCT
TAF
KVCT 012336Z 0200/0224 34008KT P6SM BKN040 OVC150
      TEMPO 0200/0201 -SHRA BKN030
     FM020100 36017G26KT P6SM SCT040 BKN150
      TEMPO 0201/0202 -SHRA BKN030
     FM021600 02012KT P6SM BKN250=

USA.gov is the U.S. government's official web portal to all federal, state and local government web resources and services.